Time;durP1;ratioP1;P1;durP2;ratioP2;P2;SDS_P1;SDS_P2;PMS_P1;PMS_P2;Temp;Humidity;BMP_temperature;BMP_pressure;BME280_temperature;BME280_humidity;BME280_pressure;Samples;Min_cycle;Max_cycle;Signal;HPM_P1;HPM_P2
2022/10/13 00:00:04;;;;;;;17.83;11.33;;;;;;;;;;5074303;28;20978;-44
2022/10/13 00:02:30;;;;;;;18.00;11.57;;;;;;;;;;5074264;28;20409;-44
2022/10/13 00:04:56;;;;;;;18.50;11.00;;;;;;;;;;5074168;28;20400;-44
2022/10/13 00:07:22;;;;;;;20.10;10.83;;;;;;;;;;5074071;28;20946;-44
2022/10/13 00:09:48;;;;;;;17.00;10.77;;;;;;;;;;5068754;28;20925;-44
2022/10/13 00:12:13;;;;;;;19.43;10.60;;;;;;;;;;5054331;28;20459;-43
2022/10/13 00:14:39;;;;;;;15.03;10.50;;;;;;;;;;5054257;28;20398;-44
2022/10/13 00:17:05;;;;;;;15.27;10.03;;;;;;;;;;5053531;28;20918;-44
2022/10/13 00:19:32;;;;;;;20.90;10.33;;;;;;;;;;5053986;28;20443;-43
2022/10/13 00:21:58;;;;;;;15.60;10.30;;;;;;;;;;5054188;28;20504;-44
2022/10/13 00:24:24;;;;;;;13.03;10.27;;;;;;;;;;5054052;28;20841;-44
2022/10/13 00:26:51;;;;;;;19.00;10.20;;;;;;;;;;5053424;28;20429;-43
2022/10/13 00:29:17;;;;;;;11.90;10.00;;;;;;;;;;5053717;28;21037;-43
2022/10/13 00:31:43;;;;;;;24.70;10.70;;;;;;;;;;5053793;28;20410;-44
2022/10/13 00:34:09;;;;;;;18.20;10.13;;;;;;;;;;5054131;28;20467;-43
2022/10/13 00:36:35;;;;;;;19.50;10.60;;;;;;;;;;5072124;28;20460;-43
2022/10/13 00:39:01;;;;;;;15.60;10.97;;;;;;;;;;5073672;28;20787;-44
2022/10/13 00:41:27;;;;;;;18.37;10.70;;;;;;;;;;5073662;28;20858;-43
2022/10/13 00:43:56;;;;;;;21.57;11.57;;;;;;;;;;5073798;28;20412;-44
2022/10/13 00:46:23;;;;;;;17.30;10.90;;;;;;;;;;5072748;28;20405;-44
2022/10/13 00:48:50;;;;;;;20.00;11.53;;;;;;;;;;5073635;28;20808;-44
2022/10/13 00:51:17;;;;;;;17.57;10.73;;;;;;;;;;5073231;28;20921;-44
2022/10/13 00:53:45;;;;;;;18.63;10.57;;;;;;;;;;5073503;28;20409;-44
2022/10/13 00:56:12;;;;;;;19.40;11.30;;;;;;;;;;5072434;28;20792;-44
2022/10/13 00:58:39;;;;;;;14.50;10.17;;;;;;;;;;5073037;28;20463;-44
2022/10/13 01:01:06;;;;;;;17.13;10.23;;;;;;;;;;5072689;28;20411;-44
2022/10/13 01:03:32;;;;;;;15.50;10.70;;;;;;;;;;5073025;28;20417;-42
2022/10/13 01:05:59;;;;;;;18.67;10.40;;;;;;;;;;5072482;28;20417;-41
2022/10/13 01:08:27;;;;;;;18.87;11.20;;;;;;;;;;5071535;28;20863;-42
2022/10/13 01:11:02;;;;;;;12.90;9.33;;;;;;;;;;5072840;28;20839;-42
2022/10/13 01:13:38;;;;;;;14.50;9.83;;;;;;;;;;5073003;28;20472;-42
2022/10/13 01:16:12;;;;;;;17.83;11.30;;;;;;;;;;5072104;28;20452;-42
2022/10/13 01:18:54;;;;;;;18.13;10.47;;;;;;;;;;5072715;28;20424;-42
2022/10/13 01:21:32;;;;;;;15.90;10.23;;;;;;;;;;5072801;28;20788;-44
2022/10/13 01:24:10;;;;;;;15.17;10.60;;;;;;;;;;5072812;28;20862;-42
2022/10/13 01:27:02;;;;;;;17.43;10.40;;;;;;;;;;5072160;28;20405;-41
2022/10/13 01:29:46;;;;;;;17.50;10.30;;;;;;;;;;5064187;28;20432;-41
2022/10/13 01:32:19;;;;;;;14.67;9.67;;;;;;;;;;5072590;28;20462;-41
2022/10/13 01:34:45;;;;;;;19.47;11.93;;;;;;;;;;5072420;28;20895;-41
2022/10/13 01:37:20;;;;;;;13.77;9.50;;;;;;;;;;5071568;28;20466;-41
2022/10/13 01:39:52;;;;;;;18.23;10.10;;;;;;;;;;5071877;28;20478;-42
2022/10/13 01:42:27;;;;;;;14.87;9.57;;;;;;;;;;5072522;28;20405;-42
2022/10/13 01:44:58;;;;;;;14.70;9.23;;;;;;;;;;5072052;28;20400;-42
2022/10/13 01:47:25;;;;;;;13.73;9.20;;;;;;;;;;5072009;28;20508;-42
2022/10/13 01:49:52;;;;;;;12.77;9.17;;;;;;;;;;5071863;28;20425;-42
2022/10/13 01:52:20;;;;;;;21.67;11.50;;;;;;;;;;5072384;28;20488;-43
2022/10/13 01:54:50;;;;;;;13.03;9.20;;;;;;;;;;5063736;28;20421;-47
2022/10/13 01:57:31;;;;;;;18.20;10.00;;;;;;;;;;5071708;28;20946;-43
2022/10/13 01:59:58;;;;;;;19.20;11.20;;;;;;;;;;5071713;28;20486;-44
2022/10/13 02:02:29;;;;;;;17.37;11.23;;;;;;;;;;5070780;28;20396;-44
2022/10/13 02:05:01;;;;;;;16.30;10.30;;;;;;;;;;5069922;28;20465;-44
2022/10/13 02:07:42;;;;;;;15.37;10.40;;;;;;;;;;5069888;28;20917;-44
2022/10/13 02:10:23;;;;;;;18.27;9.37;;;;;;;;;;5070864;28;20446;-44
2022/10/13 02:12:51;;;;;;;17.53;9.93;;;;;;;;;;5070966;28;20779;-44
2022/10/13 02:15:19;;;;;;;14.53;9.53;;;;;;;;;;5071426;28;20946;-44
2022/10/13 02:17:46;;;;;;;20.50;10.80;;;;;;;;;;5071267;28;20979;-44
2022/10/13 02:20:12;;;;;;;15.60;10.57;;;;;;;;;;5070502;28;20821;-44
2022/10/13 02:22:41;;;;;;;14.37;9.87;;;;;;;;;;5071932;28;20438;-44
2022/10/13 02:25:08;;;;;;;18.87;11.10;;;;;;;;;;5071331;28;20488;-44
2022/10/13 02:27:34;;;;;;;20.07;10.43;;;;;;;;;;5071354;28;20416;-43
2022/10/13 02:30:00;;;;;;;12.83;9.67;;;;;;;;;;5071553;28;20413;-43
2022/10/13 02:32:25;;;;;;;21.10;10.73;;;;;;;;;;5071409;28;20410;-43
2022/10/13 02:34:51;;;;;;;14.60;10.40;;;;;;;;;;5071667;28;20771;-44
2022/10/13 02:37:18;;;;;;;17.83;9.20;;;;;;;;;;5070985;28;20457;-44
2022/10/13 02:39:44;;;;;;;19.73;10.03;;;;;;;;;;5071405;28;20425;-44
2022/10/13 02:42:10;;;;;;;15.93;8.83;;;;;;;;;;5071358;28;20409;-43
2022/10/13 02:44:36;;;;;;;13.50;10.00;;;;;;;;;;5071672;28;20406;-43
2022/10/13 02:47:02;;;;;;;13.83;10.03;;;;;;;;;;5070629;28;20405;-44
2022/10/13 02:49:27;;;;;;;18.20;9.00;;;;;;;;;;5071518;28;20425;-43
2022/10/13 02:51:53;;;;;;;19.40;9.70;;;;;;;;;;5071165;28;20497;-43
2022/10/13 02:54:19;;;;;;;17.90;10.30;;;;;;;;;;5071592;28;20420;-43
2022/10/13 02:56:45;;;;;;;15.30;10.53;;;;;;;;;;5071294;28;20496;-42
2022/10/13 02:59:11;;;;;;;21.33;9.10;;;;;;;;;;5071383;28;20425;-42
2022/10/13 03:01:40;;;;;;;15.20;10.30;;;;;;;;;;5070906;28;20449;-44
2022/10/13 03:04:06;;;;;;;18.53;10.00;;;;;;;;;;5071327;28;20428;-42
2022/10/13 03:06:32;;;;;;;14.53;10.47;;;;;;;;;;5070579;28;20409;-41
2022/10/13 03:08:58;;;;;;;20.33;10.90;;;;;;;;;;5071276;28;20839;-42
2022/10/13 03:11:24;;;;;;;14.07;9.90;;;;;;;;;;5070983;28;20413;-43
2022/10/13 03:13:50;;;;;;;15.87;9.57;;;;;;;;;;5071395;28;20406;-44
2022/10/13 03:16:16;;;;;;;24.30;10.23;;;;;;;;;;5070209;28;20467;-42
2022/10/13 03:18:42;;;;;;;18.30;10.30;;;;;;;;;;5071241;28;20428;-41
2022/10/13 03:21:09;;;;;;;11.73;9.23;;;;;;;;;;5070860;28;20410;-42
2022/10/13 03:23:35;;;;;;;17.00;11.93;;;;;;;;;;5071220;28;20403;-45
2022/10/13 03:26:01;;;;;;;15.00;9.57;;;;;;;;;;5070493;28;20436;-42
2022/10/13 03:28:27;;;;;;;16.93;9.10;;;;;;;;;;5071155;28;20432;-42
2022/10/13 03:31:00;;;;;;;17.00;9.90;;;;;;;;;;5070894;28;20789;-42
2022/10/13 03:33:26;;;;;;;12.80;8.60;;;;;;;;;;5074817;28;20409;-44
2022/10/13 03:35:52;;;;;;;20.67;9.97;;;;;;;;;;5074432;28;20467;-45
2022/10/13 03:38:18;;;;;;;15.47;9.57;;;;;;;;;;5074591;28;20428;-41
2022/10/13 03:40:44;;;;;;;17.27;10.10;;;;;;;;;;5074497;28;20409;-42
2022/10/13 03:43:09;;;;;;;15.23;9.97;;;;;;;;;;5074719;28;20430;-42
2022/10/13 03:45:35;;;;;;;18.30;10.57;;;;;;;;;;5074178;28;20490;-43
2022/10/13 03:48:01;;;;;;;17.73;9.67;;;;;;;;;;5074363;28;20425;-42
2022/10/13 03:50:27;;;;;;;15.03;9.03;;;;;;;;;;5074844;28;20411;-43
2022/10/13 03:52:53;;;;;;;17.87;9.70;;;;;;;;;;5074076;28;20551;-42
2022/10/13 03:55:19;;;;;;;15.90;10.20;;;;;;;;;;5074354;28;20902;-44
2022/10/13 03:57:45;;;;;;;13.00;8.90;;;;;;;;;;5073377;28;20821;-42
2022/10/13 04:00:12;;;;;;;18.27;9.10;;;;;;;;;;5074823;28;20402;-42
2022/10/13 04:02:37;;;;;;;10.00;8.43;;;;;;;;;;5073831;28;20423;-42
2022/10/13 04:05:04;;;;;;;15.97;8.57;;;;;;;;;;5074502;28;20410;-42
2022/10/13 04:07:29;;;;;;;14.00;9.50;;;;;;;;;;5073626;28;20466;-42
2022/10/13 04:09:55;;;;;;;20.23;10.70;;;;;;;;;;5074247;28;20405;-42
2022/10/13 04:12:21;;;;;;;17.33;9.73;;;;;;;;;;5073745;28;20417;-42
2022/10/13 04:14:47;;;;;;;17.67;9.10;;;;;;;;;;5074332;28;20495;-42
2022/10/13 04:17:13;;;;;;;15.70;9.20;;;;;;;;;;5073399;28;20460;-43
2022/10/13 04:19:39;;;;;;;15.00;8.90;;;;;;;;;;5074401;28;20497;-44
2022/10/13 04:22:05;;;;;;;16.20;8.97;;;;;;;;;;5074068;28;20403;-42
2022/10/13 04:24:31;;;;;;;14.37;9.93;;;;;;;;;;5074020;28;20489;-42
2022/10/13 04:26:57;;;;;;;14.43;8.60;;;;;;;;;;5071732;28;20405;-42
2022/10/13 04:29:23;;;;;;;13.67;9.00;;;;;;;;;;5073866;28;20514;-42
2022/10/13 04:31:49;;;;;;;17.03;9.30;;;;;;;;;;5073914;28;20540;-42
2022/10/13 04:34:15;;;;;;;11.80;8.93;;;;;;;;;;5073899;28;20429;-42
2022/10/13 04:36:42;;;;;;;15.50;9.40;;;;;;;;;;5073150;28;20452;-42
2022/10/13 04:39:08;;;;;;;18.37;10.20;;;;;;;;;;5073659;28;20504;-42
2022/10/13 04:41:33;;;;;;;21.50;10.30;;;;;;;;;;5073948;28;20447;-42
2022/10/13 04:44:01;;;;;;;19.20;9.67;;;;;;;;;;5072967;28;20451;-42
2022/10/13 04:46:27;;;;;;;17.97;9.23;;;;;;;;;;5073283;28;20950;-42
2022/10/13 04:48:54;;;;;;;14.40;9.63;;;;;;;;;;5073519;28;20436;-45
2022/10/13 04:51:21;;;;;;;20.20;11.27;;;;;;;;;;5073466;28;20413;-42
2022/10/13 04:53:47;;;;;;;19.50;10.77;;;;;;;;;;5073535;28;20874;-42
2022/10/13 04:56:15;;;;;;;14.40;8.63;;;;;;;;;;5072809;28;20457;-42
2022/10/13 04:58:41;;;;;;;18.07;10.80;;;;;;;;;;5073323;28;20843;-41
2022/10/13 05:01:11;;;;;;;15.17;10.47;;;;;;;;;;5073475;28;20397;-42
2022/10/13 05:03:37;;;;;;;20.10;10.30;;;;;;;;;;5073209;28;20418;-42
2022/10/13 05:06:03;;;;;;;15.50;10.53;;;;;;;;;;5072491;28;20770;-42
2022/10/13 05:08:29;;;;;;;13.80;9.47;;;;;;;;;;5073077;28;20419;-45
2022/10/13 05:10:59;;;;;;;16.57;10.10;;;;;;;;;;5073177;28;20946;-42
2022/10/13 05:13:25;;;;;;;14.27;9.57;;;;;;;;;;5073114;28;20511;-45
2022/10/13 05:15:51;;;;;;;15.67;9.80;;;;;;;;;;5072798;28;20417;-44
2022/10/13 05:18:17;;;;;;;16.50;9.53;;;;;;;;;;5072433;28;20433;-42
2022/10/13 05:20:43;;;;;;;17.47;9.87;;;;;;;;;;5072791;28;20406;-42
2022/10/13 05:23:09;;;;;;;13.57;8.80;;;;;;;;;;5073005;28;20415;-42
2022/10/13 05:25:36;;;;;;;19.77;9.63;;;;;;;;;;5072649;28;20485;-42
2022/10/13 05:28:04;;;;;;;12.83;10.90;;;;;;;;;;5070637;28;20485;-42
2022/10/13 05:30:30;;;;;;;17.23;10.13;;;;;;;;;;5072769;28;20464;-42
2022/10/13 05:32:57;;;;;;;18.43;9.50;;;;;;;;;;5072730;28;20440;-41
2022/10/13 05:35:22;;;;;;;15.43;9.57;;;;;;;;;;5072366;28;20432;-44
2022/10/13 05:37:48;;;;;;;17.37;10.00;;;;;;;;;;5072210;28;20712;-41
2022/10/13 05:40:14;;;;;;;11.63;8.77;;;;;;;;;;5072568;28;20398;-42
2022/10/13 05:42:41;;;;;;;13.87;9.70;;;;;;;;;;5072529;28;20426;-42
2022/10/13 05:45:10;;;;;;;18.80;9.80;;;;;;;;;;5072154;28;20956;-42
2022/10/13 05:47:36;;;;;;;13.87;8.87;;;;;;;;;;5070725;28;20925;-42
2022/10/13 05:50:02;;;;;;;14.90;10.60;;;;;;;;;;5072287;28;20456;-42
2022/10/13 05:52:31;;;;;;;22.57;9.23;;;;;;;;;;5072501;28;20463;-42
2022/10/13 05:55:00;;;;;;;11.97;8.60;;;;;;;;;;5072254;28;20749;-41
2022/10/13 05:57:28;;;;;;;17.50;10.23;;;;;;;;;;5071789;28;20952;-42
2022/10/13 06:00:02;;;;;;;11.50;8.30;;;;;;;;;;5072024;28;20475;-41
2022/10/13 06:02:33;;;;;;;12.07;8.63;;;;;;;;;;5071610;28;20398;-42
2022/10/13 06:05:01;;;;;;;13.97;9.30;;;;;;;;;;5071529;28;20423;-42
2022/10/13 06:07:28;;;;;;;13.00;9.10;;;;;;;;;;5070198;28;20385;-43
2022/10/13 06:09:54;;;;;;;16.60;8.57;;;;;;;;;;5070962;28;20436;-42
2022/10/13 06:12:20;;;;;;;13.03;9.37;;;;;;;;;;5071149;28;20405;-42
2022/10/13 06:14:46;;;;;;;13.13;8.93;;;;;;;;;;5071303;28;20440;-43
2022/10/13 06:17:12;;;;;;;12.13;9.37;;;;;;;;;;5070606;28;20452;-43
2022/10/13 06:19:38;;;;;;;15.57;9.40;;;;;;;;;;5071179;28;20422;-45
2022/10/13 06:22:04;;;;;;;13.80;8.97;;;;;;;;;;5071259;28;20399;-42
2022/10/13 06:24:30;;;;;;;18.97;9.80;;;;;;;;;;5070767;28;20431;-42
2022/10/13 06:26:56;;;;;;;15.17;8.73;;;;;;;;;;5069100;28;21007;-42
2022/10/13 06:29:22;;;;;;;19.30;9.30;;;;;;;;;;5071180;28;20423;-42
2022/10/13 06:31:49;;;;;;;11.90;8.10;;;;;;;;;;5070676;28;20404;-42
2022/10/13 06:34:15;;;;;;;19.87;9.37;;;;;;;;;;5071281;28;20411;-43
2022/10/13 06:36:41;;;;;;;16.13;9.47;;;;;;;;;;5069943;28;20464;-45
2022/10/13 06:39:07;;;;;;;16.93;8.97;;;;;;;;;;5069936;28;20417;-42
2022/10/13 06:41:33;;;;;;;17.67;10.27;;;;;;;;;;5070248;28;20408;-43
2022/10/13 06:43:59;;;;;;;15.70;8.60;;;;;;;;;;5071174;28;20501;-42
2022/10/13 06:46:26;;;;;;;16.83;9.20;;;;;;;;;;5068869;28;20413;-42
2022/10/13 06:48:51;;;;;;;14.03;8.77;;;;;;;;;;5045866;28;20431;-43
2022/10/13 06:51:17;;;;;;;17.37;8.70;;;;;;;;;;5034522;28;20407;-43
2022/10/13 06:53:43;;;;;;;11.07;7.93;;;;;;;;;;5033433;28;20457;-43
2022/10/13 06:56:10;;;;;;;14.73;8.63;;;;;;;;;;5032260;28;20915;-44
2022/10/13 06:58:36;;;;;;;19.30;9.10;;;;;;;;;;5033967;28;20413;-44
2022/10/13 07:01:02;;;;;;;17.47;8.67;;;;;;;;;;5030984;28;20421;-44
2022/10/13 07:03:28;;;;;;;18.80;9.00;;;;;;;;;;5030133;28;20852;-44
2022/10/13 07:05:54;;;;;;;11.07;8.60;;;;;;;;;;5031861;28;20395;-44
2022/10/13 07:08:20;;;;;;;11.50;7.60;;;;;;;;;;5035136;28;20427;-44
2022/10/13 07:10:46;;;;;;;11.17;8.53;;;;;;;;;;5035763;28;20538;-44
2022/10/13 07:13:12;;;;;;;14.80;9.33;;;;;;;;;;5035554;28;20407;-44
2022/10/13 07:15:39;;;;;;;16.10;8.83;;;;;;;;;;5035241;28;20399;-44
2022/10/13 07:18:05;;;;;;;13.63;8.70;;;;;;;;;;5034744;28;20467;-44
2022/10/13 07:20:31;;;;;;;12.77;8.37;;;;;;;;;;5035309;28;20956;-44
2022/10/13 07:22:57;;;;;;;11.57;7.87;;;;;;;;;;5035283;28;20542;-44
2022/10/13 07:25:23;;;;;;;10.90;8.23;;;;;;;;;;5034988;28;20408;-45
2022/10/13 07:27:49;;;;;;;13.20;8.00;;;;;;;;;;5034692;28;20391;-44
2022/10/13 07:30:15;;;;;;;13.00;7.30;;;;;;;;;;5035290;28;20470;-44
2022/10/13 07:32:41;;;;;;;12.07;7.80;;;;;;;;;;5035109;28;20477;-44
2022/10/13 07:35:10;;;;;;;14.10;8.40;;;;;;;;;;5034873;28;20913;-44
2022/10/13 07:37:37;;;;;;;14.37;9.20;;;;;;;;;;5034505;28;20840;-44
2022/10/13 07:40:06;;;;;;;13.20;8.90;;;;;;;;;;5034928;28;20403;-44
2022/10/13 07:42:32;;;;;;;11.23;7.17;;;;;;;;;;5034954;28;20466;-44
2022/10/13 07:44:58;;;;;;;13.50;8.33;;;;;;;;;;5034962;28;20428;-44
2022/10/13 07:47:24;;;;;;;12.57;8.20;;;;;;;;;;5034226;28;20405;-44
2022/10/13 07:49:50;;;;;;;17.53;8.30;;;;;;;;;;5034610;28;20433;-45
2022/10/13 07:52:16;;;;;;;12.50;7.60;;;;;;;;;;5034752;28;20406;-44
2022/10/13 07:54:42;;;;;;;13.77;7.50;;;;;;;;;;5034829;28;20655;-44
2022/10/13 07:57:08;;;;;;;8.37;7.10;;;;;;;;;;5034074;28;20462;-44
2022/10/13 07:59:34;;;;;;;10.17;7.50;;;;;;;;;;5034543;28;20404;-44
2022/10/13 08:02:00;;;;;;;10.40;7.73;;;;;;;;;;5034573;28;20406;-44
2022/10/13 08:04:30;;;;;;;10.17;7.80;;;;;;;;;;5034339;28;20428;-44
2022/10/13 08:06:57;;;;;;;16.83;8.07;;;;;;;;;;5033826;28;20472;-44
2022/10/13 08:09:24;;;;;;;11.97;7.57;;;;;;;;;;5034338;28;20444;-44
2022/10/13 08:11:50;;;;;;;12.37;7.23;;;;;;;;;;5034481;28;20667;-44
2022/10/13 08:14:16;;;;;;;13.30;7.90;;;;;;;;;;5034391;28;20894;-44
2022/10/13 08:16:44;;;;;;;10.13;7.37;;;;;;;;;;5033617;28;20431;-44
2022/10/13 08:19:10;;;;;;;10.77;7.73;;;;;;;;;;5032812;28;20439;-44
2022/10/13 08:21:37;;;;;;;12.80;7.13;;;;;;;;;;5034205;28;20395;-44
2022/10/13 08:24:03;;;;;;;10.83;7.20;;;;;;;;;;5034124;28;20386;-44
2022/10/13 08:26:29;;;;;;;14.13;8.00;;;;;;;;;;5033569;28;20896;-44
2022/10/13 08:28:55;;;;;;;10.30;7.30;;;;;;;;;;5033874;28;20521;-44
2022/10/13 08:31:21;;;;;;;14.50;8.17;;;;;;;;;;5034017;28;20465;-44
2022/10/13 08:33:47;;;;;;;11.60;7.53;;;;;;;;;;5037210;28;20425;-44
2022/10/13 08:36:14;;;;;;;9.80;6.70;;;;;;;;;;5044314;28;21010;-48
2022/10/13 08:38:40;;;;;;;10.87;7.70;;;;;;;;;;5034785;28;20908;-48
2022/10/13 08:41:20;;;;;;;9.43;7.60;;;;;;;;;;5035138;28;20408;-45
2022/10/13 08:43:51;;;;;;;10.90;6.93;;;;;;;;;;5034345;28;20933;-44
2022/10/13 08:46:20;;;;;;;15.43;9.27;;;;;;;;;;5035293;28;20419;-47
2022/10/13 08:48:46;;;;;;;8.10;6.80;;;;;;;;;;5034829;28;20782;-47
2022/10/13 08:51:15;;;;;;;11.23;6.90;;;;;;;;;;5034955;28;20386;-44
2022/10/13 08:53:45;;;;;;;11.17;6.97;;;;;;;;;;5034761;28;20906;-44
2022/10/13 08:56:14;;;;;;;13.20;7.20;;;;;;;;;;5032812;28;20544;-45
2022/10/13 08:58:41;;;;;;;10.17;6.90;;;;;;;;;;5034931;28;20418;-44
2022/10/13 09:01:10;;;;;;;12.87;6.80;;;;;;;;;;5034403;28;20901;-44
2022/10/13 09:03:46;;;;;;;8.63;7.50;;;;;;;;;;5033720;28;20929;-44
2022/10/13 09:06:20;;;;;;;13.40;7.00;;;;;;;;;;5033696;28;20908;-44
2022/10/13 09:08:53;;;;;;;11.43;7.37;;;;;;;;;;5034146;28;20404;-44
2022/10/13 09:11:19;;;;;;;8.70;6.20;;;;;;;;;;5032636;28;20754;-43
2022/10/13 09:13:46;;;;;;;10.20;7.23;;;;;;;;;;5033273;28;20500;-43
2022/10/13 09:16:12;;;;;;;9.97;6.70;;;;;;;;;;5032499;28;20959;-43
2022/10/13 09:18:39;;;;;;;11.60;6.33;;;;;;;;;;5044634;28;20453;-47
2022/10/13 09:21:16;;;;;;;11.77;7.70;;;;;;;;;;5051681;28;20389;-45
2022/10/13 09:23:42;;;;;;;12.23;6.90;;;;;;;;;;5052385;28;20407;-47
2022/10/13 09:26:15;;;;;;;8.40;6.90;;;;;;;;;;5052098;28;20401;-46
2022/10/13 09:28:42;;;;;;;10.90;6.23;;;;;;;;;;5052925;28;20515;-45
2022/10/13 09:31:18;;;;;;;9.80;7.17;;;;;;;;;;5052298;28;20824;-45
2022/10/13 09:33:45;;;;;;;12.50;6.60;;;;;;;;;;5052583;28;20439;-45
2022/10/13 09:36:12;;;;;;;18.13;7.37;;;;;;;;;;5051875;28;20889;-46
2022/10/13 09:38:39;;;;;;;7.93;6.20;;;;;;;;;;5052502;28;20926;-46
2022/10/13 09:41:08;;;;;;;11.53;6.93;;;;;;;;;;5052483;28;20563;-48
2022/10/13 09:43:42;;;;;;;8.07;5.90;;;;;;;;;;5052378;28;20434;-48
2022/10/13 09:46:17;;;;;;;11.00;6.00;;;;;;;;;;5051801;28;20438;-45
2022/10/13 09:48:47;;;;;;;10.93;6.73;;;;;;;;;;5052736;28;20427;-45
2022/10/13 09:51:32;;;;;;;9.67;6.60;;;;;;;;;;5052298;28;20852;-47
2022/10/13 09:53:58;;;;;;;11.83;6.27;;;;;;;;;;5052051;28;20951;-42
2022/10/13 09:56:39;;;;;;;10.10;5.70;;;;;;;;;;5050425;28;20459;-42
2022/10/13 09:59:11;;;;;;;12.40;6.97;;;;;;;;;;5051830;28;20905;-42
2022/10/13 10:01:39;;;;;;;10.93;6.60;;;;;;;;;;5052212;28;20923;-42
2022/10/13 10:04:06;;;;;;;10.23;6.40;;;;;;;;;;5050590;28;20431;-43
2022/10/13 10:06:33;;;;;;;10.83;8.20;;;;;;;;;;5051637;28;20506;-42
2022/10/13 10:09:05;;;;;;;7.40;6.00;;;;;;;;;;5052087;28;20435;-42
2022/10/13 10:11:42;;;;;;;6.77;5.40;;;;;;;;;;5051847;28;20389;-43
2022/10/13 10:14:16;;;;;;;11.40;6.10;;;;;;;;;;5051766;28;20404;-44
2022/10/13 10:16:45;;;;;;;10.57;6.40;;;;;;;;;;5051315;28;20494;-42
2022/10/13 10:19:19;;;;;;;11.73;5.77;;;;;;;;;;5051862;28;20829;-42
2022/10/13 10:21:48;;;;;;;11.63;6.17;;;;;;;;;;5051759;28;20408;-42
2022/10/13 10:24:25;;;;;;;8.03;5.90;;;;;;;;;;5051519;28;20958;-44
2022/10/13 10:26:55;;;;;;;9.53;6.50;;;;;;;;;;5051220;28;20978;-42
2022/10/13 10:29:24;;;;;;;12.40;6.60;;;;;;;;;;5051594;28;20421;-43
2022/10/13 10:31:55;;;;;;;12.00;5.70;;;;;;;;;;5051861;28;20430;-42
2022/10/13 10:34:28;;;;;;;8.83;6.00;;;;;;;;;;5051262;28;20914;-44
2022/10/13 10:37:05;;;;;;;12.53;6.37;;;;;;;;;;5051102;28;20470;-45
2022/10/13 10:39:36;;;;;;;14.60;6.23;;;;;;;;;;5051800;28;20526;-42
2022/10/13 10:42:06;;;;;;;8.40;6.30;;;;;;;;;;5050898;28;20408;-45
2022/10/13 10:44:34;;;;;;;8.17;6.20;;;;;;;;;;5051463;28;20408;-44
2022/10/13 10:47:35;;;;;;;6.80;6.10;;;;;;;;;;5050873;28;20439;-42
2022/10/13 10:50:03;;;;;;;14.30;7.13;;;;;;;;;;5025112;28;20937;-44
2022/10/13 10:52:34;;;;;;;14.10;6.67;;;;;;;;;;5031609;28;20425;-45
2022/10/13 10:55:10;;;;;;;9.60;6.43;;;;;;;;;;5016384;28;20417;-42
2022/10/13 10:57:41;;;;;;;6.13;5.53;;;;;;;;;;5052592;28;20455;-44
2022/10/13 11:00:16;;;;;;;8.27;7.20;;;;;;;;;;5051621;28;20400;-43
2022/10/13 11:03:00;;;;;;;9.13;5.97;;;;;;;;;;5050781;28;20416;-44
2022/10/13 11:05:30;;;;;;;10.33;5.87;;;;;;;;;;5050174;28;20399;-44
2022/10/13 11:07:57;;;;;;;8.10;5.90;;;;;;;;;;5051275;28;20422;-44
2022/10/13 11:10:25;;;;;;;7.17;5.13;;;;;;;;;;5051596;28;20411;-44
2022/10/13 11:12:51;;;;;;;6.70;5.13;;;;;;;;;;5071394;28;20401;-44
2022/10/13 11:15:27;;;;;;;8.20;5.07;;;;;;;;;;5070911;28;20763;-44
2022/10/13 11:17:54;;;;;;;9.80;6.40;;;;;;;;;;5030813;28;20461;-44
2022/10/13 11:20:19;;;;;;;9.70;5.53;;;;;;;;;;5031234;28;20406;-44
2022/10/13 11:22:57;;;;;;;11.80;5.40;;;;;;;;;;5050447;28;20496;-45
2022/10/13 11:25:36;;;;;;;10.93;5.47;;;;;;;;;;5051092;28;20923;-44
2022/10/13 11:28:20;;;;;;;7.90;4.63;;;;;;;;;;5050634;28;20951;-44
2022/10/13 11:30:49;;;;;;;5.00;4.50;;;;;;;;;;5051013;28;20496;-44
2022/10/13 11:33:32;;;;;;;6.20;4.40;;;;;;;;;;5051118;28;20416;-44
2022/10/13 11:35:58;;;;;;;5.00;4.50;;;;;;;;;;5050801;28;20881;-44
2022/10/13 11:38:31;;;;;;;5.70;4.30;;;;;;;;;;5050605;28;20490;-44
2022/10/13 11:41:06;;;;;;;10.80;5.40;;;;;;;;;;5051033;28;20393;-44
2022/10/13 11:43:52;;;;;;;11.43;4.80;;;;;;;;;;5051423;28;20393;-44
2022/10/13 11:46:26;;;;;;;7.93;5.43;;;;;;;;;;5050327;28;20476;-44
2022/10/13 11:49:10;;;;;;;5.73;4.53;;;;;;;;;;5051000;28;20775;-44
2022/10/13 11:51:39;;;;;;;7.40;5.07;;;;;;;;;;5051253;28;20420;-44
2022/10/13 11:54:08;;;;;;;9.60;5.40;;;;;;;;;;5053917;28;20439;-44
2022/10/13 11:56:54;;;;;;;6.00;4.90;;;;;;;;;;5053882;28;20453;-44
2022/10/13 11:59:26;;;;;;;5.40;4.53;;;;;;;;;;5053943;28;20437;-44
2022/10/13 12:01:53;;;;;;;9.70;4.73;;;;;;;;;;5063247;28;20960;-43
2022/10/13 12:04:21;;;;;;;7.43;4.60;;;;;;;;;;5074375;28;20856;-44
2022/10/13 12:06:53;;;;;;;7.13;5.10;;;;;;;;;;5073562;28;20411;-43
2022/10/13 12:09:20;;;;;;;9.40;4.90;;;;;;;;;;5074405;28;20507;-43
2022/10/13 12:11:46;;;;;;;6.73;4.80;;;;;;;;;;5074052;28;20825;-44
2022/10/13 12:14:24;;;;;;;9.80;5.60;;;;;;;;;;5074293;28;20402;-44
2022/10/13 12:16:54;;;;;;;7.90;5.27;;;;;;;;;;5073135;28;20534;-44
2022/10/13 12:19:21;;;;;;;7.10;4.73;;;;;;;;;;5074071;28;20457;-44
2022/10/13 12:21:48;;;;;;;8.70;4.73;;;;;;;;;;5073857;28;20410;-44
2022/10/13 12:24:14;;;;;;;16.00;5.43;;;;;;;;;;5074128;28;20911;-44
2022/10/13 12:26:40;;;;;;;5.27;4.87;;;;;;;;;;5073041;28;20387;-44
2022/10/13 12:29:10;;;;;;;10.87;5.80;;;;;;;;;;5073663;28;20482;-44
2022/10/13 12:31:41;;;;;;;8.83;5.80;;;;;;;;;;5073794;28;20414;-44
2022/10/13 12:34:17;;;;;;;12.50;5.70;;;;;;;;;;5073862;28;20391;-44
2022/10/13 12:36:45;;;;;;;10.67;4.80;;;;;;;;;;5072875;28;20505;-43
2022/10/13 12:39:12;;;;;;;7.30;4.80;;;;;;;;;;5073741;28;20431;-44
2022/10/13 12:41:40;;;;;;;7.70;5.37;;;;;;;;;;5073580;28;20412;-43
2022/10/13 12:44:09;;;;;;;7.60;5.73;;;;;;;;;;5072752;28;20399;-43
2022/10/13 12:46:41;;;;;;;7.20;4.97;;;;;;;;;;5072720;28;20438;-44
2022/10/13 12:49:12;;;;;;;8.00;5.40;;;;;;;;;;5061008;28;20476;-44
2022/10/13 12:51:38;;;;;;;10.80;6.17;;;;;;;;;;5046899;28;20379;-44
2022/10/13 12:54:23;;;;;;;8.77;5.80;;;;;;;;;;5054359;28;20476;-44
2022/10/13 12:56:50;;;;;;;11.70;5.70;;;;;;;;;;5052949;28;20434;-45
2022/10/13 12:59:18;;;;;;;8.47;5.50;;;;;;;;;;5053276;28;20396;-44
2022/10/13 13:01:44;;;;;;;9.67;6.37;;;;;;;;;;5053466;28;20466;-44
2022/10/13 13:04:16;;;;;;;12.60;5.87;;;;;;;;;;5052624;28;20405;-44
2022/10/13 13:06:53;;;;;;;7.40;5.00;;;;;;;;;;5052463;28;20736;-44
2022/10/13 13:09:27;;;;;;;10.97;6.20;;;;;;;;;;5053139;28;20900;-44
2022/10/13 13:12:03;;;;;;;8.03;5.70;;;;;;;;;;5053332;28;20385;-44
2022/10/13 13:14:33;;;;;;;8.57;6.20;;;;;;;;;;5053201;28;20491;-44
2022/10/13 13:17:26;;;;;;;8.37;5.27;;;;;;;;;;5052185;28;20451;-44
2022/10/13 13:19:52;;;;;;;9.70;7.13;;;;;;;;;;5051805;28;20462;-44
2022/10/13 13:22:19;;;;;;;11.90;6.80;;;;;;;;;;5053070;28;20418;-44
2022/10/13 13:24:45;;;;;;;8.30;7.50;;;;;;;;;;5053025;28;20503;-44
2022/10/13 13:27:14;;;;;;;9.33;7.10;;;;;;;;;;5058222;28;20496;-44
2022/10/13 13:29:40;;;;;;;13.37;6.73;;;;;;;;;;5072354;28;20388;-44
2022/10/13 13:32:09;;;;;;;11.80;7.50;;;;;;;;;;5075115;28;20766;-44
2022/10/13 13:34:35;;;;;;;8.87;6.43;;;;;;;;;;5076190;28;20382;-45
2022/10/13 13:37:01;;;;;;;13.40;7.50;;;;;;;;;;5071355;28;20555;-44
2022/10/13 13:39:27;;;;;;;12.67;7.87;;;;;;;;;;5072115;28;20430;-44
2022/10/13 13:41:54;;;;;;;11.67;7.27;;;;;;;;;;5071799;28;20417;-44
2022/10/13 13:44:20;;;;;;;12.47;7.40;;;;;;;;;;5070886;28;20480;-44
2022/10/13 13:46:46;;;;;;;15.70;8.20;;;;;;;;;;5071007;28;20445;-44
2022/10/13 13:49:12;;;;;;;10.20;7.60;;;;;;;;;;5071687;28;20424;-44
2022/10/13 13:51:38;;;;;;;9.33;6.60;;;;;;;;;;5066240;28;20401;-46
2022/10/13 13:54:05;;;;;;;11.87;7.23;;;;;;;;;;5051950;28;20381;-44
2022/10/13 13:56:31;;;;;;;13.57;7.10;;;;;;;;;;5051069;28;20944;-43
2022/10/13 13:58:57;;;;;;;12.13;6.60;;;;;;;;;;5051520;28;20464;-43
2022/10/13 14:01:24;;;;;;;14.27;7.07;;;;;;;;;;5051864;28;20378;-44
2022/10/13 14:03:50;;;;;;;7.87;6.73;;;;;;;;;;5051724;28;20430;-43
2022/10/13 14:06:17;;;;;;;11.63;7.37;;;;;;;;;;5050398;28;20407;-44
2022/10/13 14:08:43;;;;;;;12.47;7.90;;;;;;;;;;5041923;28;20805;-47
2022/10/13 14:11:09;;;;;;;16.27;7.37;;;;;;;;;;5051816;28;20443;-46
2022/10/13 14:13:35;;;;;;;10.30;7.30;;;;;;;;;;5052222;28;20418;-47
2022/10/13 14:16:01;;;;;;;12.97;6.63;;;;;;;;;;5051839;28;20387;-46
2022/10/13 14:18:27;;;;;;;7.90;5.90;;;;;;;;;;5051203;28;20488;-46
2022/10/13 14:20:53;;;;;;;10.50;7.07;;;;;;;;;;5051810;28;20418;-45
2022/10/13 14:23:19;;;;;;;10.13;6.40;;;;;;;;;;5051798;28;20864;-48
2022/10/13 14:25:45;;;;;;;10.60;6.20;;;;;;;;;;5051457;28;20823;-47
2022/10/13 14:28:11;;;;;;;13.83;7.60;;;;;;;;;;5051339;28;20436;-47
2022/10/13 14:30:41;;;;;;;11.50;8.07;;;;;;;;;;5051981;28;20499;-48
2022/10/13 14:33:08;;;;;;;10.23;7.37;;;;;;;;;;5051729;28;20880;-47
2022/10/13 14:35:34;;;;;;;12.10;8.17;;;;;;;;;;5052176;28;20402;-42